<?xml version="1.0" encoding="UTF-8" standalone="no" ?>
<gpx xmlns="http://www.topografix.com/GPX/1/1" xmlns:xsi="http://www.w3.org/2001/XMLSchema-instance" xsi:schemaLocation="http://www.topografix.com/GPX/1/1 http://www.topografix.com/GPX/1/1/gpx.xsd" version="1.1" creator="VisuGPX - https://www.visugpx.com">
  <metadata>
    <name>boucles beaumont</name>
    <desc><![CDATA[boucles beaumont du périgord]]></desc>
  </metadata>
  <trk>
    <name><![CDATA[BBmt55]]></name>
    <trkseg>
      <trkpt lat="44.77031" lon="0.82635">
        <ele>100</ele>
        <time>2009-01-19T10:56:43Z</time>
      </trkpt>
      <trkpt lat="44.7666" lon="0.82833">
        <ele>159</ele>
        <time>2009-01-19T10:56:58Z</time>
      </trkpt>
      <trkpt lat="44.76648" lon="0.82813">
        <ele>165</ele>
        <time>2009-01-19T10:57:04Z</time>
      </trkpt>
      <trkpt lat="44.7663" lon="0.82823">
        <ele>166</ele>
        <time>2009-01-19T10:58:00Z</time>
      </trkpt>
      <trkpt lat="44.76615" lon="0.8284">
        <ele>167</ele>
        <time>2009-01-19T10:58:03Z</time>
      </trkpt>
      <trkpt lat="44.76598" lon="0.82858">
        <ele>167</ele>
        <time>2009-01-19T10:58:06Z</time>
      </trkpt>
      <trkpt lat="44.76578" lon="0.82878">
        <ele>169</ele>
        <time>2009-01-19T10:58:08Z</time>
      </trkpt>
      <trkpt lat="44.76555" lon="0.82893">
        <ele>170</ele>
        <time>2009-01-19T10:58:11Z</time>
      </trkpt>
      <trkpt lat="44.76535" lon="0.82908">
        <ele>172</ele>
        <time>2009-01-19T10:58:14Z</time>
      </trkpt>
      <trkpt lat="44.76518" lon="0.8292">
        <ele>174</ele>
        <time>2009-01-19T10:58:20Z</time>
      </trkpt>
      <trkpt lat="44.76503" lon="0.82938">
        <ele>178</ele>
        <time>2009-01-19T10:59:09Z</time>
      </trkpt>
      <trkpt lat="44.76495" lon="0.82965">
        <ele>179</ele>
        <time>2009-01-19T10:59:15Z</time>
      </trkpt>
      <trkpt lat="44.7649" lon="0.82993">
        <ele>175</ele>
        <time>2009-01-19T10:59:38Z</time>
      </trkpt>
      <trkpt lat="44.76488" lon="0.83023">
        <ele>175</ele>
        <time>2009-01-19T10:59:42Z</time>
      </trkpt>
      <trkpt lat="44.76483" lon="0.83055">
        <ele>177</ele>
        <time>2009-01-19T10:59:45Z</time>
      </trkpt>
      <trkpt lat="44.76483" lon="0.83083">
        <ele>178</ele>
        <time>2009-01-19T10:59:48Z</time>
      </trkpt>
      <trkpt lat="44.76485" lon="0.83123">
        <ele>179</ele>
        <time>2009-01-19T10:59:50Z</time>
      </trkpt>
      <trkpt lat="44.7648" lon="0.8315">
        <ele>174</ele>
        <time>2009-01-19T11:00:08Z</time>
      </trkpt>
      <trkpt lat="44.7648" lon="0.83185">
        <ele>179</ele>
        <time>2009-01-19T11:00:12Z</time>
      </trkpt>
      <trkpt lat="44.76475" lon="0.8321">
        <ele>179</ele>
        <time>2009-01-19T11:00:16Z</time>
      </trkpt>
      <trkpt lat="44.76455" lon="0.83205">
        <ele>182</ele>
        <time>2009-01-19T11:00:28Z</time>
      </trkpt>
      <trkpt lat="44.76445" lon="0.83178">
        <ele>185</ele>
        <time>2009-01-19T11:00:31Z</time>
      </trkpt>
      <trkpt lat="44.76438" lon="0.83148">
        <ele>191</ele>
        <time>2009-01-19T11:00:35Z</time>
      </trkpt>
      <trkpt lat="44.7643" lon="0.83118">
        <ele>197</ele>
        <time>2009-01-19T11:00:38Z</time>
      </trkpt>
      <trkpt lat="44.7642" lon="0.83095">
        <ele>193</ele>
        <time>2009-01-19T11:00:40Z</time>
      </trkpt>
      <trkpt lat="44.76403" lon="0.8308">
        <ele>191</ele>
        <time>2009-01-19T11:00:45Z</time>
      </trkpt>
      <trkpt lat="44.7638" lon="0.83078">
        <ele>190</ele>
        <time>2009-01-19T11:00:49Z</time>
      </trkpt>
      <trkpt lat="44.76355" lon="0.83078">
        <ele>188</ele>
        <time>2009-01-19T11:00:53Z</time>
      </trkpt>
      <trkpt lat="44.76335" lon="0.8307">
        <ele>186</ele>
        <time>2009-01-19T11:00:56Z</time>
      </trkpt>
      <trkpt lat="44.76323" lon="0.8305">
        <ele>184</ele>
        <time>2009-01-19T11:00:59Z</time>
      </trkpt>
      <trkpt lat="44.76305" lon="0.8304">
        <ele>183</ele>
        <time>2009-01-19T11:01:39Z</time>
      </trkpt>
      <trkpt lat="44.76283" lon="0.83043">
        <ele>180</ele>
        <time>2009-01-19T11:01:43Z</time>
      </trkpt>
      <trkpt lat="44.7626" lon="0.83045">
        <ele>177</ele>
        <time>2009-01-19T11:01:47Z</time>
      </trkpt>
      <trkpt lat="44.7624" lon="0.83048">
        <ele>175</ele>
        <time>2009-01-19T11:01:50Z</time>
      </trkpt>
      <trkpt lat="44.7622" lon="0.83053">
        <ele>173</ele>
        <time>2009-01-19T11:01:53Z</time>
      </trkpt>
      <trkpt lat="44.762" lon="0.8306">
        <ele>171</ele>
        <time>2009-01-19T11:01:56Z</time>
      </trkpt>
      <trkpt lat="44.76178" lon="0.83065">
        <ele>168</ele>
        <time>2009-01-19T11:01:59Z</time>
      </trkpt>
      <trkpt lat="44.76158" lon="0.83073">
        <ele>167</ele>
        <time>2009-01-19T11:02:02Z</time>
      </trkpt>
      <trkpt lat="44.76138" lon="0.83078">
        <ele>166</ele>
        <time>2009-01-19T11:02:05Z</time>
      </trkpt>
      <trkpt lat="44.76115" lon="0.83085">
        <ele>165</ele>
        <time>2009-01-19T11:02:09Z</time>
      </trkpt>
      <trkpt lat="44.7609" lon="0.83093">
        <ele>164</ele>
        <time>2009-01-19T11:02:13Z</time>
      </trkpt>
      <trkpt lat="44.7607" lon="0.831">
        <ele>164</ele>
        <time>2009-01-19T11:02:17Z</time>
      </trkpt>
      <trkpt lat="44.76053" lon="0.83108">
        <ele>164</ele>
        <time>2009-01-19T11:02:21Z</time>
      </trkpt>
      <trkpt lat="44.76033" lon="0.83115">
        <ele>164</ele>
        <time>2009-01-19T11:02:25Z</time>
      </trkpt>
      <trkpt lat="44.76013" lon="0.83115">
        <ele>164</ele>
        <time>2009-01-19T11:02:29Z</time>
      </trkpt>
      <trkpt lat="44.7599" lon="0.8311">
        <ele>162</ele>
        <time>2009-01-19T11:02:33Z</time>
      </trkpt>
      <trkpt lat="44.75973" lon="0.83118">
        <ele>161</ele>
        <time>2009-01-19T11:02:36Z</time>
      </trkpt>
      <trkpt lat="44.75953" lon="0.83115">
        <ele>157</ele>
        <time>2009-01-19T11:02:41Z</time>
      </trkpt>
      <trkpt lat="44.7594" lon="0.83095">
        <ele>153</ele>
        <time>2009-01-19T11:02:44Z</time>
      </trkpt>
      <trkpt lat="44.75928" lon="0.83073">
        <ele>152</ele>
        <time>2009-01-19T11:02:47Z</time>
      </trkpt>
      <trkpt lat="44.75915" lon="0.83053">
        <ele>159</ele>
        <time>2009-01-19T11:03:42Z</time>
      </trkpt>
      <trkpt lat="44.75898" lon="0.83038">
        <ele>164</ele>
        <time>2009-01-19T11:04:14Z</time>
      </trkpt>
      <trkpt lat="44.75878" lon="0.83018">
        <ele>161</ele>
        <time>2009-01-19T11:04:19Z</time>
      </trkpt>
      <trkpt lat="44.75858" lon="0.83003">
        <ele>159</ele>
        <time>2009-01-19T11:04:21Z</time>
      </trkpt>
      <trkpt lat="44.7584" lon="0.82988">
        <ele>159</ele>
        <time>2009-01-19T11:04:25Z</time>
      </trkpt>
      <trkpt lat="44.75823" lon="0.82975">
        <ele>159</ele>
        <time>2009-01-19T11:04:28Z</time>
      </trkpt>
      <trkpt lat="44.75805" lon="0.82968">
        <ele>159</ele>
        <time>2009-01-19T11:04:30Z</time>
      </trkpt>
      <trkpt lat="44.75783" lon="0.82968">
        <ele>160</ele>
        <time>2009-01-19T11:04:42Z</time>
      </trkpt>
      <trkpt lat="44.75768" lon="0.82983">
        <ele>162</ele>
        <time>2009-01-19T11:04:47Z</time>
      </trkpt>
      <trkpt lat="44.75753" lon="0.83005">
        <ele>165</ele>
        <time>2009-01-19T11:04:53Z</time>
      </trkpt>
      <trkpt lat="44.75738" lon="0.83028">
        <ele>167</ele>
        <time>2009-01-19T11:04:58Z</time>
      </trkpt>
      <trkpt lat="44.7572" lon="0.83043">
        <ele>167</ele>
        <time>2009-01-19T11:05:02Z</time>
      </trkpt>
      <trkpt lat="44.75703" lon="0.83055">
        <ele>166</ele>
        <time>2009-01-19T11:05:06Z</time>
      </trkpt>
      <trkpt lat="44.7568" lon="0.83055">
        <ele>165</ele>
        <time>2009-01-19T11:05:11Z</time>
      </trkpt>
      <trkpt lat="44.75658" lon="0.83053">
        <ele>164</ele>
        <time>2009-01-19T11:05:15Z</time>
      </trkpt>
      <trkpt lat="44.7564" lon="0.83045">
        <ele>163</ele>
        <time>2009-01-19T11:05:18Z</time>
      </trkpt>
      <trkpt lat="44.7562" lon="0.8303">
        <ele>159</ele>
        <time>2009-01-19T11:05:24Z</time>
      </trkpt>
      <trkpt lat="44.75605" lon="0.8301">
        <ele>159</ele>
        <time>2009-01-19T11:05:29Z</time>
      </trkpt>
      <trkpt lat="44.7559" lon="0.82993">
        <ele>158</ele>
        <time>2009-01-19T11:05:34Z</time>
      </trkpt>
      <trkpt lat="44.75575" lon="0.82973">
        <ele>157</ele>
        <time>2009-01-19T11:05:39Z</time>
      </trkpt>
      <trkpt lat="44.7556" lon="0.8295">
        <ele>153</ele>
        <time>2009-01-19T11:05:47Z</time>
      </trkpt>
      <trkpt lat="44.75545" lon="0.8293">
        <ele>151</ele>
        <time>2009-01-19T11:05:50Z</time>
      </trkpt>
      <trkpt lat="44.7553" lon="0.8291">
        <ele>149</ele>
        <time>2009-01-19T11:05:54Z</time>
      </trkpt>
      <trkpt lat="44.75518" lon="0.8289">
        <ele>147</ele>
        <time>2009-01-19T11:05:58Z</time>
      </trkpt>
      <trkpt lat="44.75505" lon="0.82868">
        <ele>147</ele>
        <time>2009-01-19T11:06:02Z</time>
      </trkpt>
      <trkpt lat="44.75495" lon="0.82845">
        <ele>147</ele>
        <time>2009-01-19T11:06:07Z</time>
      </trkpt>
      <trkpt lat="44.75485" lon="0.8282">
        <ele>147</ele>
        <time>2009-01-19T11:06:13Z</time>
      </trkpt>
      <trkpt lat="44.75473" lon="0.82798">
        <ele>144</ele>
        <time>2009-01-19T11:06:19Z</time>
      </trkpt>
      <trkpt lat="44.7546" lon="0.82773">
        <ele>141</ele>
        <time>2009-01-19T11:06:23Z</time>
      </trkpt>
      <trkpt lat="44.75448" lon="0.82753">
        <ele>140</ele>
        <time>2009-01-19T11:06:28Z</time>
      </trkpt>
      <trkpt lat="44.75435" lon="0.82728">
        <ele>139</ele>
        <time>2009-01-19T11:06:32Z</time>
      </trkpt>
      <trkpt lat="44.75368" lon="0.82555">
        <ele>125</ele>
        <time>2009-01-19T11:12:46Z</time>
      </trkpt>
      <trkpt lat="44.7535" lon="0.82575">
        <ele>118</ele>
        <time>2009-01-19T11:13:13Z</time>
      </trkpt>
      <trkpt lat="44.7533" lon="0.82588">
        <ele>118</ele>
        <time>2009-01-19T11:13:15Z</time>
      </trkpt>
      <trkpt lat="44.75313" lon="0.82608">
        <ele>115</ele>
        <time>2009-01-19T11:13:20Z</time>
      </trkpt>
      <trkpt lat="44.75298" lon="0.82628">
        <ele>113</ele>
        <time>2009-01-19T11:13:22Z</time>
      </trkpt>
      <trkpt lat="44.75285" lon="0.82655">
        <ele>109</ele>
        <time>2009-01-19T11:13:25Z</time>
      </trkpt>
      <trkpt lat="44.75278" lon="0.82683">
        <ele>107</ele>
        <time>2009-01-19T11:13:28Z</time>
      </trkpt>
      <trkpt lat="44.7527" lon="0.82713">
        <ele>105</ele>
        <time>2009-01-19T11:13:32Z</time>
      </trkpt>
      <trkpt lat="44.75265" lon="0.82748">
        <ele>106</ele>
        <time>2009-01-19T11:13:35Z</time>
      </trkpt>
      <trkpt lat="44.7526" lon="0.82778">
        <ele>104</ele>
        <time>2009-01-19T11:13:38Z</time>
      </trkpt>
      <trkpt lat="44.75258" lon="0.8281">
        <ele>107</ele>
        <time>2009-01-19T11:13:41Z</time>
      </trkpt>
      <trkpt lat="44.75258" lon="0.8284">
        <ele>112</ele>
        <time>2009-01-19T11:13:44Z</time>
      </trkpt>
      <trkpt lat="44.7526" lon="0.82875">
        <ele>117</ele>
        <time>2009-01-19T11:13:47Z</time>
      </trkpt>
      <trkpt lat="44.75265" lon="0.82913">
        <ele>110</ele>
        <time>2009-01-19T11:13:51Z</time>
      </trkpt>
      <trkpt lat="44.7527" lon="0.82953">
        <ele>106</ele>
        <time>2009-01-19T11:13:53Z</time>
      </trkpt>
      <trkpt lat="44.75275" lon="0.82988">
        <ele>107</ele>
        <time>2009-01-19T11:13:56Z</time>
      </trkpt>
      <trkpt lat="44.75283" lon="0.83015">
        <ele>115</ele>
        <time>2009-01-19T11:14:43Z</time>
      </trkpt>
      <trkpt lat="44.75288" lon="0.8304">
        <ele>105</ele>
        <time>2009-01-19T11:14:45Z</time>
      </trkpt>
      <trkpt lat="44.75293" lon="0.83078">
        <ele>102</ele>
        <time>2009-01-19T11:14:47Z</time>
      </trkpt>
      <trkpt lat="44.75298" lon="0.83135">
        <ele>99</ele>
        <time>2009-01-19T11:14:49Z</time>
      </trkpt>
      <trkpt lat="44.75303" lon="0.83168">
        <ele>97</ele>
        <time>2009-01-19T11:14:52Z</time>
      </trkpt>
      <trkpt lat="44.7531" lon="0.832">
        <ele>96</ele>
        <time>2009-01-19T11:14:54Z</time>
      </trkpt>
      <trkpt lat="44.7532" lon="0.83243">
        <ele>94</ele>
        <time>2009-01-19T11:14:56Z</time>
      </trkpt>
      <trkpt lat="44.75328" lon="0.83273">
        <ele>94</ele>
        <time>2009-01-19T11:14:58Z</time>
      </trkpt>
      <trkpt lat="44.75335" lon="0.83298">
        <ele>93</ele>
        <time>2009-01-19T11:15:01Z</time>
      </trkpt>
      <trkpt lat="44.75343" lon="0.83325">
        <ele>92</ele>
        <time>2009-01-19T11:15:04Z</time>
      </trkpt>
      <trkpt lat="44.75325" lon="0.83318">
        <ele>95</ele>
        <time>2009-01-19T11:15:18Z</time>
      </trkpt>
      <trkpt lat="44.7532" lon="0.83293">
        <ele>94</ele>
        <time>2009-01-19T11:15:22Z</time>
      </trkpt>
      <trkpt lat="44.75313" lon="0.83265">
        <ele>95</ele>
        <time>2009-01-19T11:15:25Z</time>
      </trkpt>
      <trkpt lat="44.75303" lon="0.83233">
        <ele>96</ele>
        <time>2009-01-19T11:15:28Z</time>
      </trkpt>
      <trkpt lat="44.75293" lon="0.83198">
        <ele>95</ele>
        <time>2009-01-19T11:15:31Z</time>
      </trkpt>
      <trkpt lat="44.75283" lon="0.83163">
        <ele>95</ele>
        <time>2009-01-19T11:15:33Z</time>
      </trkpt>
      <trkpt lat="44.75278" lon="0.83135">
        <ele>95</ele>
        <time>2009-01-19T11:15:35Z</time>
      </trkpt>
      <trkpt lat="44.7527" lon="0.83108">
        <ele>94</ele>
        <time>2009-01-19T11:15:38Z</time>
      </trkpt>
      <trkpt lat="44.75263" lon="0.8308">
        <ele>93</ele>
        <time>2009-01-19T11:15:40Z</time>
      </trkpt>
      <trkpt lat="44.75255" lon="0.8304">
        <ele>92</ele>
        <time>2009-01-19T11:15:42Z</time>
      </trkpt>
      <trkpt lat="44.75248" lon="0.83013">
        <ele>89</ele>
        <time>2009-01-19T11:15:44Z</time>
      </trkpt>
      <trkpt lat="44.75243" lon="0.82988">
        <ele>90</ele>
        <time>2009-01-19T11:15:47Z</time>
      </trkpt>
      <trkpt lat="44.75238" lon="0.82963">
        <ele>89</ele>
        <time>2009-01-19T11:15:49Z</time>
      </trkpt>
      <trkpt lat="44.75235" lon="0.82933">
        <ele>90</ele>
        <time>2009-01-19T11:15:51Z</time>
      </trkpt>
      <trkpt lat="44.75233" lon="0.82935">
        <ele>77</ele>
        <time>2009-01-19T11:16:43Z</time>
      </trkpt>
      <trkpt lat="44.75235" lon="0.82908">
        <ele>82</ele>
        <time>2009-01-19T11:19:18Z</time>
      </trkpt>
      <trkpt lat="44.75228" lon="0.82878">
        <ele>86</ele>
        <time>2009-01-19T11:19:21Z</time>
      </trkpt>
      <trkpt lat="44.75223" lon="0.8285">
        <ele>88</ele>
        <time>2009-01-19T11:19:24Z</time>
      </trkpt>
      <trkpt lat="44.7522" lon="0.82818">
        <ele>90</ele>
        <time>2009-01-19T11:19:28Z</time>
      </trkpt>
      <trkpt lat="44.75218" lon="0.82783">
        <ele>91</ele>
        <time>2009-01-19T11:19:30Z</time>
      </trkpt>
      <trkpt lat="44.75218" lon="0.82748">
        <ele>90</ele>
        <time>2009-01-19T11:19:33Z</time>
      </trkpt>
      <trkpt lat="44.7522" lon="0.82713">
        <ele>89</ele>
        <time>2009-01-19T11:19:36Z</time>
      </trkpt>
      <trkpt lat="44.75225" lon="0.82678">
        <ele>89</ele>
        <time>2009-01-19T11:19:39Z</time>
      </trkpt>
      <trkpt lat="44.7523" lon="0.82643">
        <ele>89</ele>
        <time>2009-01-19T11:19:43Z</time>
      </trkpt>
      <trkpt lat="44.75235" lon="0.82608">
        <ele>92</ele>
        <time>2009-01-19T11:19:46Z</time>
      </trkpt>
      <trkpt lat="44.75243" lon="0.8257">
        <ele>91</ele>
        <time>2009-01-19T11:19:48Z</time>
      </trkpt>
      <trkpt lat="44.75248" lon="0.82538">
        <ele>93</ele>
        <time>2009-01-19T11:19:51Z</time>
      </trkpt>
      <trkpt lat="44.75253" lon="0.82508">
        <ele>94</ele>
        <time>2009-01-19T11:19:54Z</time>
      </trkpt>
      <trkpt lat="44.75235" lon="0.8249">
        <ele>85</ele>
        <time>2009-01-19T11:20:07Z</time>
      </trkpt>
      <trkpt lat="44.75213" lon="0.82478">
        <ele>84</ele>
        <time>2009-01-19T11:20:11Z</time>
      </trkpt>
      <trkpt lat="44.75193" lon="0.82468">
        <ele>83</ele>
        <time>2009-01-19T11:20:14Z</time>
      </trkpt>
      <trkpt lat="44.75173" lon="0.82458">
        <ele>81</ele>
        <time>2009-01-19T11:20:17Z</time>
      </trkpt>
      <trkpt lat="44.75153" lon="0.82445">
        <ele>81</ele>
        <time>2009-01-19T11:20:21Z</time>
      </trkpt>
      <trkpt lat="44.75135" lon="0.8243">
        <ele>83</ele>
        <time>2009-01-19T11:20:27Z</time>
      </trkpt>
      <trkpt lat="44.75125" lon="0.82405">
        <ele>81</ele>
        <time>2009-01-19T11:20:34Z</time>
      </trkpt>
      <trkpt lat="44.75113" lon="0.82383">
        <ele>81</ele>
        <time>2009-01-19T11:20:39Z</time>
      </trkpt>
      <trkpt lat="44.751" lon="0.8236">
        <ele>84</ele>
        <time>2009-01-19T11:20:45Z</time>
      </trkpt>
      <trkpt lat="44.75093" lon="0.82335">
        <ele>88</ele>
        <time>2009-01-19T11:20:52Z</time>
      </trkpt>
    </trkseg>
  </trk>
</gpx>